Asahi — JD2498 — position and weather

sailwx.info

Track history (hours):
 
Tides and Currents Weather Stations Pressure Air Temp Water Temp Dewpoint Dewpoint Depression Visibility Wind Speed Wind Dir Waves Ship Positions

Asahi

Last reported at 2017-Nov-23 05:00 UTC. Time now 2017-Nov-23 05:14 UTC.
Position N 35°36' E 139°47'.

Length 37 m; draft 3.7 m.

Type: Tug. MMSI: 431000377.

Date/timePositionNaut miles runAvg speedWind from/ knotsBaromVisibWave heightAir tempDewpointWater temp
2017-Nov-23 05:00N 35°36' E 139°47'2 5.0
2017-Nov-23 04:30N 35°38' E 139°46'1 1.6
2017-Nov-23 04:00N 35°39' E 139°46'0 0.0
2017-Nov-23 03:30N 35°39' E 139°46'0 0.0
2017-Nov-23 03:00N 35°39' E 139°46'0 0.0
2017-Nov-23 02:30N 35°39' E 139°46'0 0.0
2017-Nov-23 02:00N 35°39' E 139°46'0 0.0
2017-Nov-23 01:30N 35°39' E 139°46'0 0.0
2017-Nov-23 01:00N 35°39' E 139°46'0 0.0
2017-Nov-23 00:30N 35°39' E 139°46'0 0.0
2017-Nov-23 00:00N 35°39' E 139°46'1 2.2
2017-Nov-22 23:30N 35°38' E 139°46'2 3.3
2017-Nov-22 23:00N 35°36' E 139°47'2 3.3
2017-Nov-22 22:30N 35°35' E 139°48'4 7.1
2017-Nov-22 22:00N 35°33' E 139°52'1 1.5
2017-Nov-22 21:29N 35°34' E 139°52'4 7.9
2017-Nov-22 21:01N 35°34' E 139°48'0 0.5
2017-Nov-22 20:30N 35°35' E 139°48'2 4.3
2017-Nov-22 20:00N 35°36' E 139°46'0 1.0
2017-Nov-22 19:30N 35°37' E 139°46'  
2017-Nov-20 00:30N 35°38' E 139°46'0 0.0
2017-Nov-20 00:00N 35°38' E 139°46'0 0.0
2017-Nov-19 23:30N 35°38' E 139°46'0 0.0
2017-Nov-19 23:00N 35°38' E 139°46'0 0.0
2017-Nov-19 22:30N 35°38' E 139°46'0 0.0
2017-Nov-19 22:00N 35°38' E 139°46'0 0.0
2017-Nov-19 21:30N 35°38' E 139°46'0 0.0
2017-Nov-19 21:00N 35°38' E 139°46'0 0.0
2017-Nov-19 20:30N 35°38' E 139°46'0 0.0
2017-Nov-19 20:00N 35°38' E 139°46'0 0.0
2017-Nov-19 19:30N 35°38' E 139°46'0 0.0
2017-Nov-19 19:00N 35°38' E 139°46'0 0.0
2017-Nov-19 18:30N 35°38' E 139°46'0 0.0
2017-Nov-19 18:00N 35°38' E 139°46'0 0.0
2017-Nov-19 17:30N 35°38' E 139°46'0 0.0
2017-Nov-19 17:00N 35°38' E 139°46'0 0.0
2017-Nov-19 16:30N 35°38' E 139°46'0 0.0
2017-Nov-19 16:00N 35°38' E 139°46'0 0.0
2017-Nov-19 15:30N 35°38' E 139°46'0 0.0
2017-Nov-19 15:00N 35°38' E 139°46'0 0.0
2017-Nov-19 14:30N 35°38' E 139°46'0 0.0
2017-Nov-19 14:00N 35°38' E 139°46'0 0.0
2017-Nov-19 13:30N 35°38' E 139°46'0 0.0
2017-Nov-19 13:00N 35°38' E 139°46'0 0.0
2017-Nov-19 12:30N 35°38' E 139°46'0 0.0
2017-Nov-19 12:00N 35°38' E 139°46'0 0.0
2017-Nov-19 11:30N 35°38' E 139°46'0 0.0
2017-Nov-19 11:00N 35°38' E 139°46'0 0.0
2017-Nov-19 10:30N 35°38' E 139°46'0 0.0
2017-Nov-19 10:00N 35°38' E 139°46'0 0.0
2017-Nov-19 09:30N 35°38' E 139°46'0 0.0
2017-Nov-19 09:00N 35°38' E 139°46'0 0.0
2017-Nov-19 08:30N 35°38' E 139°46'0 0.0
2017-Nov-19 08:00N 35°38' E 139°46'0 0.0
2017-Nov-19 07:30N 35°38' E 139°46'0 0.0
2017-Nov-19 07:00N 35°38' E 139°46'0 0.0
2017-Nov-19 06:30N 35°38' E 139°46'0 0.0
2017-Nov-19 06:00N 35°38' E 139°46'0 0.0
2017-Nov-19 05:30N 35°38' E 139°46'0 0.0
2017-Nov-19 05:00N 35°38' E 139°46'0 0.0
2017-Nov-19 04:30N 35°38' E 139°46'0 0.0
2017-Nov-19 04:00N 35°38' E 139°46'0 0.0
2017-Nov-19 03:30N 35°38' E 139°46'0 0.0
2017-Nov-19 03:00N 35°38' E 139°46'0 0.0
2017-Nov-19 02:30N 35°38' E 139°46'0 0.0
2017-Nov-19 02:00N 35°38' E 139°46'0 0.0
2017-Nov-19 01:29N 35°38' E 139°46'0 0.0
2017-Nov-19 01:00N 35°38' E 139°46'0 0.0
2017-Nov-19 00:30N 35°38' E 139°46'0 0.0
2017-Nov-19 00:00N 35°38' E 139°46'0 0.0
2017-Nov-18 23:30N 35°38' E 139°46'0 0.1
2017-Nov-18 21:01N 35°38' E 139°46'011.4
2017-Nov-18 20:58N 35°38' E 139°46'1 2.7
2017-Nov-18 20:27N 35°37' E 139°47'1 2.3
2017-Nov-18 20:00N 35°38' E 139°46'2 1.9
2017-Nov-18 18:58N 35°36' E 139°48'1 0.4
2017-Nov-18 15:40N 35°35' E 139°47'0 0.0
2017-Nov-18 14:23N 35°35' E 139°47'1 1.8
2017-Nov-18 13:54N 35°36' E 139°47'1 2.3
2017-Nov-18 13:30N 35°35' E 139°47'2 2.5
2017-Nov-18 12:51N 35°37' E 139°46'1 0.5
2017-Nov-18 10:28N 35°38' E 139°46'2 2.2
2017-Nov-18 09:36N 35°36' E 139°48'1 8.2
2017-Nov-18 09:28N 35°37' E 139°46'0 0.0
2017-Nov-17 13:23N 35°37' E 139°46'2 3.2
2017-Nov-17 12:54N 35°36' E 139°48'0 0.7
2017-Nov-17 12:30N 35°36' E 139°47'2 3.7
2017-Nov-17 11:50N 35°38' E 139°46'1 1.9
2017-Nov-17 11:19N 35°37' E 139°46'2 4.7
2017-Nov-17 10:58N 35°36' E 139°47'1 2.1
2017-Nov-17 10:30N 35°35' E 139°48'2 1.5
2017-Nov-17 09:23N 35°36' E 139°46'1 0.8
2017-Nov-17 08:44N 35°37' E 139°46'1 3.9
2017-Nov-17 08:27N 35°38' E 139°46'1 0.1
2017-Nov-16 22:50N 35°39' E 139°46'0 1.0
2017-Nov-16 22:29N 35°38' E 139°46'510.4
2017-Nov-16 22:00N 35°34' E 139°49'4 6.1
2017-Nov-16 21:24N 35°37' E 139°46'1 0.1
2017-Nov-16 10:27N 35°38' E 139°46'2 4.0
2017-Nov-16 09:53N 35°36' E 139°47'1 2.4
2017-Nov-16 09:27N 35°35' E 139°47'1 1.7
2017-Nov-16 09:00N 35°35' E 139°48'4 0.4
2017-Nov-15 23:17N 35°38' E 139°46'1 4.3
2017-Nov-15 22:59N 35°37' E 139°47'1 2.3
2017-Nov-15 22:30N 35°36' E 139°47'1 1.8
2017-Nov-15 22:00N 35°35' E 139°48'4 7.9
2017-Nov-15 21:29N 35°39' E 139°46'2 0.2
2017-Nov-15 10:26N 35°37' E 139°46'1 2.0
2017-Nov-15 09:59N 35°36' E 139°46'2 0.2
2017-Nov-14 23:21N 35°38' E 139°46'3 3.7
2017-Nov-14 22:39N 35°36' E 139°46'1 3.3
2017-Nov-14 22:25N 35°35' E 139°47'1 1.9
2017-Nov-14 22:00N 35°35' E 139°48'1 2.4
2017-Nov-14 21:28N 35°36' E 139°47'1 1.8
2017-Nov-14 21:00N 35°37' E 139°47'2 2.9
2017-Nov-14 20:22N 35°38' E 139°45'0 0.1
2017-Nov-14 18:43N 35°38' E 139°46'0 0.0
2017-Nov-14 18:29N 35°38' E 139°46'0 0.0
2017-Nov-14 15:59N 35°38' E 139°46'1 0.1
2017-Nov-14 02:15N 35°37' E 139°46'2 3.6
2017-Nov-14 01:50N 35°36' E 139°48'  
Track history (hours):
 
Tides and Currents Weather Stations Pressure Air Temp Water Temp Dewpoint Dewpoint Depression Visibility Wind Speed Wind Dir Waves Ship Positions

Asahi

Last reported at 2017-Nov-23 05:00 UTC. Time now 2017-Nov-23 05:14 UTC.
Position N 35°36' E 139°47'.

Length 37 m; draft 3.7 m.

Type: Tug. MMSI: 431000377.

Date/timePositionNaut miles runAvg speedWind from/ knotsBaromVisibWave heightAir tempDewpointWater temp
2017-Nov-23 05:00N 35°36' E 139°47'2 5.0
2017-Nov-23 04:30N 35°38' E 139°46'1 1.6
2017-Nov-23 04:00N 35°39' E 139°46'0 0.0
2017-Nov-23 03:30N 35°39' E 139°46'0 0.0
2017-Nov-23 03:00N 35°39' E 139°46'0 0.0
2017-Nov-23 02:30N 35°39' E 139°46'0 0.0
2017-Nov-23 02:00N 35°39' E 139°46'0 0.0
2017-Nov-23 01:30N 35°39' E 139°46'0 0.0
2017-Nov-23 01:00N 35°39' E 139°46'0 0.0
2017-Nov-23 00:30N 35°39' E 139°46'0 0.0
2017-Nov-23 00:00N 35°39' E 139°46'1 2.2
2017-Nov-22 23:30N 35°38' E 139°46'2 3.3
2017-Nov-22 23:00N 35°36' E 139°47'2 3.3
2017-Nov-22 22:30N 35°35' E 139°48'4 7.1
2017-Nov-22 22:00N 35°33' E 139°52'1 1.5
2017-Nov-22 21:29N 35°34' E 139°52'4 7.9
2017-Nov-22 21:01N 35°34' E 139°48'0 0.5
2017-Nov-22 20:30N 35°35' E 139°48'2 4.3
2017-Nov-22 20:00N 35°36' E 139°46'0 1.0
2017-Nov-22 19:30N 35°37' E 139°46'  
2017-Nov-20 00:30N 35°38' E 139°46'0 0.0
2017-Nov-20 00:00N 35°38' E 139°46'0 0.0
2017-Nov-19 23:30N 35°38' E 139°46'0 0.0
2017-Nov-19 23:00N 35°38' E 139°46'0 0.0
2017-Nov-19 22:30N 35°38' E 139°46'0 0.0
2017-Nov-19 22:00N 35°38' E 139°46'0 0.0
2017-Nov-19 21:30N 35°38' E 139°46'0 0.0
2017-Nov-19 21:00N 35°38' E 139°46'0 0.0
2017-Nov-19 20:30N 35°38' E 139°46'0 0.0
2017-Nov-19 20:00N 35°38' E 139°46'0 0.0
2017-Nov-19 19:30N 35°38' E 139°46'0 0.0
2017-Nov-19 19:00N 35°38' E 139°46'0 0.0
2017-Nov-19 18:30N 35°38' E 139°46'0 0.0
2017-Nov-19 18:00N 35°38' E 139°46'0 0.0
2017-Nov-19 17:30N 35°38' E 139°46'0 0.0
2017-Nov-19 17:00N 35°38' E 139°46'0 0.0
2017-Nov-19 16:30N 35°38' E 139°46'0 0.0
2017-Nov-19 16:00N 35°38' E 139°46'0 0.0
2017-Nov-19 15:30N 35°38' E 139°46'0 0.0
2017-Nov-19 15:00N 35°38' E 139°46'0 0.0
2017-Nov-19 14:30N 35°38' E 139°46'0 0.0
2017-Nov-19 14:00N 35°38' E 139°46'0 0.0
2017-Nov-19 13:30N 35°38' E 139°46'0 0.0
2017-Nov-19 13:00N 35°38' E 139°46'0 0.0
2017-Nov-19 12:30N 35°38' E 139°46'0 0.0
2017-Nov-19 12:00N 35°38' E 139°46'0 0.0
2017-Nov-19 11:30N 35°38' E 139°46'0 0.0
2017-Nov-19 11:00N 35°38' E 139°46'0 0.0
2017-Nov-19 10:30N 35°38' E 139°46'0 0.0
2017-Nov-19 10:00N 35°38' E 139°46'0 0.0
2017-Nov-19 09:30N 35°38' E 139°46'0 0.0
2017-Nov-19 09:00N 35°38' E 139°46'0 0.0
2017-Nov-19 08:30N 35°38' E 139°46'0 0.0
2017-Nov-19 08:00N 35°38' E 139°46'0 0.0
2017-Nov-19 07:30N 35°38' E 139°46'0 0.0
2017-Nov-19 07:00N 35°38' E 139°46'0 0.0
2017-Nov-19 06:30N 35°38' E 139°46'0 0.0
2017-Nov-19 06:00N 35°38' E 139°46'0 0.0
2017-Nov-19 05:30N 35°38' E 139°46'0 0.0
2017-Nov-19 05:00N 35°38' E 139°46'0 0.0
2017-Nov-19 04:30N 35°38' E 139°46'0 0.0
2017-Nov-19 04:00N 35°38' E 139°46'0 0.0
2017-Nov-19 03:30N 35°38' E 139°46'0 0.0
2017-Nov-19 03:00N 35°38' E 139°46'0 0.0
2017-Nov-19 02:30N 35°38' E 139°46'0 0.0
2017-Nov-19 02:00N 35°38' E 139°46'0 0.0
2017-Nov-19 01:29N 35°38' E 139°46'0 0.0
2017-Nov-19 01:00N 35°38' E 139°46'0 0.0
2017-Nov-19 00:30N 35°38' E 139°46'0 0.0
2017-Nov-19 00:00N 35°38' E 139°46'0 0.0
2017-Nov-18 23:30N 35°38' E 139°46'0 0.1
2017-Nov-18 21:01N 35°38' E 139°46'011.4
2017-Nov-18 20:58N 35°38' E 139°46'1 2.7
2017-Nov-18 20:27N 35°37' E 139°47'1 2.3
2017-Nov-18 20:00N 35°38' E 139°46'2 1.9
2017-Nov-18 18:58N 35°36' E 139°48'1 0.4
2017-Nov-18 15:40N 35°35' E 139°47'0 0.0
2017-Nov-18 14:23N 35°35' E 139°47'1 1.8
2017-Nov-18 13:54N 35°36' E 139°47'1 2.3
2017-Nov-18 13:30N 35°35' E 139°47'2 2.5
2017-Nov-18 12:51N 35°37' E 139°46'1 0.5
2017-Nov-18 10:28N 35°38' E 139°46'2 2.2
2017-Nov-18 09:36N 35°36' E 139°48'1 8.2
2017-Nov-18 09:28N 35°37' E 139°46'0 0.0
2017-Nov-17 13:23N 35°37' E 139°46'2 3.2
2017-Nov-17 12:54N 35°36' E 139°48'0 0.7
2017-Nov-17 12:30N 35°36' E 139°47'2 3.7
2017-Nov-17 11:50N 35°38' E 139°46'1 1.9
2017-Nov-17 11:19N 35°37' E 139°46'2 4.7
2017-Nov-17 10:58N 35°36' E 139°47'1 2.1
2017-Nov-17 10:30N 35°35' E 139°48'2 1.5
2017-Nov-17 09:23N 35°36' E 139°46'1 0.8
2017-Nov-17 08:44N 35°37' E 139°46'1 3.9
2017-Nov-17 08:27N 35°38' E 139°46'1 0.1
2017-Nov-16 22:50N 35°39' E 139°46'0 1.0
2017-Nov-16 22:29N 35°38' E 139°46'510.4
2017-Nov-16 22:00N 35°34' E 139°49'4 6.1
2017-Nov-16 21:24N 35°37' E 139°46'1 0.1
2017-Nov-16 10:27N 35°38' E 139°46'2 4.0
2017-Nov-16 09:53N 35°36' E 139°47'1 2.4
2017-Nov-16 09:27N 35°35' E 139°47'1 1.7
2017-Nov-16 09:00N 35°35' E 139°48'4 0.4
2017-Nov-15 23:17N 35°38' E 139°46'1 4.3
2017-Nov-15 22:59N 35°37' E 139°47'1 2.3
2017-Nov-15 22:30N 35°36' E 139°47'1 1.8
2017-Nov-15 22:00N 35°35' E 139°48'4 7.9
2017-Nov-15 21:29N 35°39' E 139°46'2 0.2
2017-Nov-15 10:26N 35°37' E 139°46'1 2.0
2017-Nov-15 09:59N 35°36' E 139°46'2 0.2
2017-Nov-14 23:21N 35°38' E 139°46'3 3.7
2017-Nov-14 22:39N 35°36' E 139°46'1 3.3
2017-Nov-14 22:25N 35°35' E 139°47'1 1.9
2017-Nov-14 22:00N 35°35' E 139°48'1 2.4
2017-Nov-14 21:28N 35°36' E 139°47'1 1.8
2017-Nov-14 21:00N 35°37' E 139°47'2 2.9
2017-Nov-14 20:22N 35°38' E 139°45'0 0.1
2017-Nov-14 18:43N 35°38' E 139°46'0 0.0
2017-Nov-14 18:29N 35°38' E 139°46'0 0.0
2017-Nov-14 15:59N 35°38' E 139°46'1 0.1
2017-Nov-14 02:15N 35°37' E 139°46'2 3.6
2017-Nov-14 01:50N 35°36' E 139°48'  

Dump ship's entire track history